Time;durP1;ratioP1;P1;durP2;ratioP2;P2;SDS_P1;SDS_P2;PMS_P1;PMS_P2;Temp;Humidity;BMP_temperature;BMP_pressure;BME280_temperature;BME280_humidity;BME280_pressure;Samples;Min_cycle;Max_cycle;Signal;HPM_P1;HPM_P2
2022/03/14 00:00:00;;;;;;;24.60;11.98;;;;;;;;;;5070503;28;20056;-51
2022/03/14 00:02:26;;;;;;;25.33;12.38;;;;;;;;;;5070605;28;20424;-46
2022/03/14 00:04:52;;;;;;;21.73;11.18;;;;;;;;;;5070479;28;20024;-54
2022/03/14 00:07:18;;;;;;;23.48;11.48;;;;;;;;;;5070297;28;20033;-47
2022/03/14 00:09:43;;;;;;;24.58;12.07;;;;;;;;;;5070362;28;20074;-50
2022/03/14 00:12:10;;;;;;;31.80;12.25;;;;;;;;;;5071175;28;20025;-51
2022/03/14 00:14:35;;;;;;;27.38;13.00;;;;;;;;;;5071026;28;20519;-52
2022/03/14 00:17:06;;;;;;;24.65;12.43;;;;;;;;;;5074240;28;20032;-51
2022/03/14 00:19:32;;;;;;;27.83;13.07;;;;;;;;;;5074622;28;20100;-51
2022/03/14 00:21:59;;;;;;;30.40;13.38;;;;;;;;;;5074540;28;20032;-52
2022/03/14 00:24:25;;;;;;;33.22;13.85;;;;;;;;;;5074259;28;20032;-52
2022/03/14 00:26:51;;;;;;;36.75;15.13;;;;;;;;;;5074014;28;20072;-51
2022/03/14 00:29:19;;;;;;;30.17;14.32;;;;;;;;;;5074361;28;20033;-53
2022/03/14 00:31:44;;;;;;;30.38;12.80;;;;;;;;;;5074751;28;20040;-50
2022/03/14 00:34:10;;;;;;;23.15;12.05;;;;;;;;;;5075341;28;20032;-50
2022/03/14 00:36:35;;;;;;;29.40;13.50;;;;;;;;;;5075278;28;20052;-47
2022/03/14 00:39:01;;;;;;;34.95;15.70;;;;;;;;;;5075464;28;20107;-55
2022/03/14 00:41:26;;;;;;;23.15;11.60;;;;;;;;;;5074731;28;20460;-49
2022/03/14 00:43:52;;;;;;;37.83;16.10;;;;;;;;;;5075499;28;20033;-47
2022/03/14 00:46:18;;;;;;;33.40;16.20;;;;;;;;;;5075498;28;20501;-51
2022/03/14 00:48:44;;;;;;;40.25;17.45;;;;;;;;;;5075086;28;20109;-46
2022/03/14 00:51:10;;;;;;;39.42;16.90;;;;;;;;;;5074674;28;20020;-48
2022/03/14 00:53:35;;;;;;;39.92;17.00;;;;;;;;;;5075402;28;20036;-50
2022/03/14 00:56:01;;;;;;;34.85;16.25;;;;;;;;;;5074144;28;20487;-47
2022/03/14 00:58:28;;;;;;;39.25;17.50;;;;;;;;;;5074880;28;20035;-50
2022/03/14 01:00:54;;;;;;;34.17;17.42;;;;;;;;;;5075207;28;20107;-51
2022/03/14 01:03:19;;;;;;;38.63;17.50;;;;;;;;;;5073629;28;20179;-49
2022/03/14 01:05:45;;;;;;;33.90;17.15;;;;;;;;;;5074904;28;20029;-50
2022/03/14 01:08:11;;;;;;;40.80;16.33;;;;;;;;;;5074776;28;20028;-52
2022/03/14 01:10:37;;;;;;;19.83;7.90;;;;;;;;;;5074753;28;20166;-46
2022/03/14 01:13:03;;;;;;;20.88;9.27;;;;;;;;;;5074762;28;20056;-52
2022/03/14 01:15:29;;;;;;;8.50;4.28;;;;;;;;;;5073523;28;20021;-51
2022/03/14 01:17:56;;;;;;;17.55;9.18;;;;;;;;;;5073379;28;20036;-52
2022/03/14 01:20:22;;;;;;;7.32;4.72;;;;;;;;;;5074893;28;20039;-50
2022/03/14 01:22:47;;;;;;;15.45;8.32;;;;;;;;;;5074467;28;20443;-54
2022/03/14 01:25:13;;;;;;;21.77;10.23;;;;;;;;;;5074363;28;20020;-50
2022/03/14 01:27:38;;;;;;;17.40;8.90;;;;;;;;;;5073727;28;20067;-52
2022/03/14 01:30:04;;;;;;;35.53;15.88;;;;;;;;;;5074422;28;20468;-52
2022/03/14 01:32:30;;;;;;;32.85;15.95;;;;;;;;;;5074613;28;20016;-52
2022/03/14 01:34:55;;;;;;;18.67;9.82;;;;;;;;;;5074580;28;20497;-50
2022/03/14 01:37:21;;;;;;;25.50;12.32;;;;;;;;;;5074311;28;20488;-54
2022/03/14 01:39:47;;;;;;;33.08;14.27;;;;;;;;;;5074249;28;20025;-48
2022/03/14 01:42:19;;;;;;;20.75;11.07;;;;;;;;;;5074103;28;20099;-48
2022/03/14 01:44:48;;;;;;;7.15;5.47;;;;;;;;;;5072877;28;20031;-52
2022/03/14 01:47:18;;;;;;;26.60;13.88;;;;;;;;;;5074025;28;20024;-50
2022/03/14 01:49:45;;;;;;;27.58;13.13;;;;;;;;;;5074106;28;20506;-52
2022/03/14 01:52:11;;;;;;;26.17;10.52;;;;;;;;;;5074033;28;20025;-54
2022/03/14 01:54:38;;;;;;;33.88;15.27;;;;;;;;;;5074200;28;20051;-53
2022/03/14 01:57:05;;;;;;;32.75;15.75;;;;;;;;;;5073898;28;20064;-49
2022/03/14 01:59:31;;;;;;;36.90;15.48;;;;;;;;;;5073936;28;20127;-46
2022/03/14 02:01:56;;;;;;;36.30;16.00;;;;;;;;;;5072619;28;20063;-54
2022/03/14 02:04:23;;;;;;;36.80;16.30;;;;;;;;;;5074003;28;20028;-50
2022/03/14 02:06:52;;;;;;;35.65;16.10;;;;;;;;;;5073658;28;20028;-50
2022/03/14 02:09:18;;;;;;;32.17;15.43;;;;;;;;;;5073873;28;20037;-45
2022/03/14 02:12:11;;;;;;;35.17;15.07;;;;;;;;;;5073706;28;20383;-48
2022/03/14 02:14:39;;;;;;;33.65;15.75;;;;;;;;;;5070751;28;20392;-45
2022/03/14 02:17:10;;;;;;;33.88;15.82;;;;;;;;;;5073480;28;20033;-52
2022/03/14 02:19:35;;;;;;;28.10;13.95;;;;;;;;;;5073715;28;20029;-52
2022/03/14 02:22:06;;;;;;;31.45;15.57;;;;;;;;;;5073652;28;20520;-50
2022/03/14 02:24:31;;;;;;;38.25;16.85;;;;;;;;;;5073636;28;20016;-49
2022/03/14 02:26:57;;;;;;;36.00;15.55;;;;;;;;;;5073143;28;20052;-51
2022/03/14 02:29:24;;;;;;;37.13;15.80;;;;;;;;;;5073156;28;20029;-51
2022/03/14 02:31:51;;;;;;;40.15;15.57;;;;;;;;;;5073120;28;20035;-48
2022/03/14 02:34:17;;;;;;;32.40;15.25;;;;;;;;;;5073255;28;20119;-51
2022/03/14 02:36:43;;;;;;;34.55;15.57;;;;;;;;;;5073337;28;20486;-48
2022/03/14 02:39:09;;;;;;;35.88;15.20;;;;;;;;;;5072903;28;20116;-51
2022/03/14 02:41:36;;;;;;;35.60;13.48;;;;;;;;;;5072920;28;20060;-48
2022/03/14 02:44:06;;;;;;;31.42;15.18;;;;;;;;;;5072967;28;20021;-52
2022/03/14 02:46:34;;;;;;;27.88;14.27;;;;;;;;;;5073257;28;20024;-49
2022/03/14 02:49:04;;;;;;;37.75;14.60;;;;;;;;;;5073341;28;20037;-53
2022/03/14 02:51:29;;;;;;;38.25;15.10;;;;;;;;;;5072844;28;20024;-51
2022/03/14 02:53:57;;;;;;;28.73;12.30;;;;;;;;;;5073036;28;20036;-45
2022/03/14 02:56:23;;;;;;;31.95;13.77;;;;;;;;;;5073076;28;20093;-47
2022/03/14 02:58:51;;;;;;;30.48;13.80;;;;;;;;;;5072776;28;20031;-50
2022/03/14 03:01:18;;;;;;;35.10;14.75;;;;;;;;;;5072591;28;20016;-53
2022/03/14 03:03:43;;;;;;;20.83;9.43;;;;;;;;;;5072673;28;20480;-53
2022/03/14 03:06:09;;;;;;;36.67;16.10;;;;;;;;;;5072604;28;20027;-49
2022/03/14 03:08:35;;;;;;;33.45;15.38;;;;;;;;;;5072587;28;20123;-47
2022/03/14 03:11:00;;;;;;;43.15;14.80;;;;;;;;;;5071628;28;20423;-47
2022/03/14 03:13:28;;;;;;;38.78;15.10;;;;;;;;;;5071271;28;20017;-50
2022/03/14 03:15:54;;;;;;;30.20;13.93;;;;;;;;;;5072522;28;20051;-54
2022/03/14 03:18:19;;;;;;;38.25;16.42;;;;;;;;;;5072781;28;20468;-49
2022/03/14 03:20:45;;;;;;;38.30;16.02;;;;;;;;;;5072677;28;20422;-48
2022/03/14 03:23:11;;;;;;;35.67;15.52;;;;;;;;;;5072678;28;20418;-52
2022/03/14 03:25:36;;;;;;;33.38;15.60;;;;;;;;;;5072222;28;20396;-53
2022/03/14 03:28:02;;;;;;;27.55;13.02;;;;;;;;;;5072547;28;20384;-48
2022/03/14 03:30:27;;;;;;;19.58;8.80;;;;;;;;;;5072639;28;20032;-47
2022/03/14 03:32:53;;;;;;;10.32;5.95;;;;;;;;;;5072290;28;20043;-50
2022/03/14 03:35:19;;;;;;;22.63;8.10;;;;;;;;;;5072504;28;20060;-52
2022/03/14 03:37:44;;;;;;;12.30;6.10;;;;;;;;;;5072253;28;20043;-48
2022/03/14 03:40:10;;;;;;;8.77;4.85;;;;;;;;;;5072577;28;20059;-50
2022/03/14 03:42:37;;;;;;;12.23;6.30;;;;;;;;;;5072444;28;20127;-51
2022/03/14 03:45:03;;;;;;;13.57;6.45;;;;;;;;;;5072176;28;20031;-50
2022/03/14 03:47:28;;;;;;;8.27;4.78;;;;;;;;;;5072032;28;20032;-53
2022/03/14 03:49:54;;;;;;;7.43;4.28;;;;;;;;;;5072680;28;20464;-51
2022/03/14 03:52:19;;;;;;;6.35;5.72;;;;;;;;;;5076263;28;20017;-45
2022/03/14 03:54:45;;;;;;;29.67;10.77;;;;;;;;;;5076236;28;20024;-49
2022/03/14 03:57:10;;;;;;;25.05;9.63;;;;;;;;;;5076176;28;20044;-52
2022/03/14 03:59:36;;;;;;;13.60;5.88;;;;;;;;;;5076379;28;20074;-51
2022/03/14 04:02:04;;;;;;;43.55;16.15;;;;;;;;;;5076651;28;20030;-48
2022/03/14 04:04:30;;;;;;;24.95;13.25;;;;;;;;;;5076048;28;20388;-50
2022/03/14 04:06:57;;;;;;;21.67;9.93;;;;;;;;;;5075991;28;20040;-48
2022/03/14 04:09:24;;;;;;;8.68;5.00;;;;;;;;;;5076078;28;20055;-52
2022/03/14 04:11:50;;;;;;;10.77;6.50;;;;;;;;;;5058206;28;20035;-53
2022/03/14 04:14:17;;;;;;;7.10;5.18;;;;;;;;;;5075789;28;20029;-44
2022/03/14 04:16:42;;;;;;;7.97;5.50;;;;;;;;;;5075927;28;20054;-52
2022/03/14 04:19:08;;;;;;;11.55;4.70;;;;;;;;;;5076029;28;20435;-46
2022/03/14 04:21:37;;;;;;;16.20;5.80;;;;;;;;;;5075953;28;20024;-50
2022/03/14 04:24:06;;;;;;;7.50;5.22;;;;;;;;;;5075595;28;20563;-52
2022/03/14 04:26:32;;;;;;;9.45;6.13;;;;;;;;;;5075467;28;20040;-51
2022/03/14 04:28:58;;;;;;;2.50;1.42;;;;;;;;;;5074148;28;20024;-53
2022/03/14 04:31:23;;;;;;;25.58;10.25;;;;;;;;;;5075502;28;20377;-50
2022/03/14 04:33:49;;;;;;;25.42;12.88;;;;;;;;;;5075718;28;20457;-50
2022/03/14 04:36:15;;;;;;;28.85;14.13;;;;;;;;;;5075405;28;20070;-52
2022/03/14 04:38:40;;;;;;;8.35;6.00;;;;;;;;;;5075343;28;20028;-47
2022/03/14 04:41:07;;;;;;;11.23;7.68;;;;;;;;;;5075269;28;20464;-54
2022/03/14 04:43:33;;;;;;;4.00;3.38;;;;;;;;;;5075523;28;20100;-55
2022/03/14 04:45:58;;;;;;;3.65;2.65;;;;;;;;;;5075573;28;20170;-49
2022/03/14 04:48:24;;;;;;;9.52;6.25;;;;;;;;;;5075718;28;20519;-48
2022/03/14 04:50:50;;;;;;;14.52;6.18;;;;;;;;;;5075473;28;20350;-56
2022/03/14 04:53:17;;;;;;;8.98;6.03;;;;;;;;;;5075168;28;20027;-56
2022/03/14 04:55:44;;;;;;;8.07;6.40;;;;;;;;;;5075047;28;20027;-58
2022/03/14 04:58:14;;;;;;;9.00;6.60;;;;;;;;;;5075289;28;20027;-54
2022/03/14 05:00:40;;;;;;;;;;;;;;;;;;5075391;28;20024;-52
2022/03/14 05:03:07;;;;;;;5.60;4.35;;;;;;;;;;5073579;28;19966;-54
2022/03/14 05:05:33;;;;;;;15.90;7.00;;;;;;;;;;5074837;28;20024;-52
2022/03/14 05:07:59;;;;;;;11.55;8.23;;;;;;;;;;5075017;28;20107;-49
2022/03/14 05:10:24;;;;;;;26.50;9.52;;;;;;;;;;5074830;28;20111;-45
2022/03/14 05:12:50;;;;;;;20.80;10.38;;;;;;;;;;5074773;28;20021;-59
2022/03/14 05:15:16;;;;;;;21.77;10.45;;;;;;;;;;5074752;28;20086;-51
2022/03/14 05:17:42;;;;;;;30.90;13.68;;;;;;;;;;5074683;28;20032;-59
2022/03/14 05:20:09;;;;;;;13.48;7.32;;;;;;;;;;5074662;28;20021;-50
2022/03/14 05:22:48;;;;;;;13.40;7.80;;;;;;;;;;5074954;28;20033;-60
2022/03/14 05:25:18;;;;;;;21.05;9.85;;;;;;;;;;5074774;28;20071;-58
2022/03/14 05:27:44;;;;;;;7.57;5.15;;;;;;;;;;5074692;28;20024;-56
2022/03/14 05:30:09;;;;;;;6.25;4.07;;;;;;;;;;5074796;28;20020;-58
2022/03/14 05:32:36;;;;;;;13.60;6.75;;;;;;;;;;5074476;28;20472;-58
2022/03/14 05:35:02;;;;;;;13.93;8.60;;;;;;;;;;5074507;28;20027;-58
2022/03/14 05:37:29;;;;;;;20.08;9.48;;;;;;;;;;5074328;28;20025;-57
2022/03/14 05:39:54;;;;;;;21.52;11.95;;;;;;;;;;5074622;28;20042;-58
2022/03/14 05:42:20;;;;;;;23.23;10.50;;;;;;;;;;5074583;28;20472;-53
2022/03/14 05:44:46;;;;;;;7.18;3.53;;;;;;;;;;5074516;28;20103;-59
2022/03/14 05:47:11;;;;;;;11.27;7.68;;;;;;;;;;5074816;28;20439;-51
2022/03/14 05:49:37;;;;;;;15.90;8.30;;;;;;;;;;5074659;28;20364;-57
2022/03/14 05:52:03;;;;;;;11.55;6.70;;;;;;;;;;5074017;28;20082;-58
2022/03/14 05:54:29;;;;;;;6.38;4.35;;;;;;;;;;5074106;28;20024;-56
2022/03/14 05:56:55;;;;;;;23.70;11.27;;;;;;;;;;5073968;28;20036;-54
2022/03/14 05:59:21;;;;;;;17.13;7.47;;;;;;;;;;5073902;28;20030;-55
2022/03/14 06:01:48;;;;;;;17.23;8.68;;;;;;;;;;5073856;28;20031;-56
2022/03/14 06:04:14;;;;;;;24.35;12.80;;;;;;;;;;5073824;28;20385;-49
2022/03/14 06:06:40;;;;;;;22.35;12.13;;;;;;;;;;5074143;28;20032;-49
2022/03/14 06:09:05;;;;;;;20.63;11.38;;;;;;;;;;5073598;28;20025;-47
2022/03/14 06:11:31;;;;;;;26.35;13.18;;;;;;;;;;5073696;28;20334;-50
2022/03/14 06:13:56;;;;;;;38.42;16.10;;;;;;;;;;5073186;28;20031;-48
2022/03/14 06:16:22;;;;;;;28.17;15.18;;;;;;;;;;5073597;28;20091;-48
2022/03/14 06:18:48;;;;;;;22.83;11.40;;;;;;;;;;5073472;28;20029;-46
2022/03/14 06:21:14;;;;;;;26.25;13.38;;;;;;;;;;5073780;28;20025;-46
2022/03/14 06:23:40;;;;;;;30.40;15.52;;;;;;;;;;5073598;28;20048;-49
2022/03/14 06:26:05;;;;;;;22.33;12.65;;;;;;;;;;5073109;28;20131;-49
2022/03/14 06:28:31;;;;;;;40.40;15.30;;;;;;;;;;5073262;28;20039;-49
2022/03/14 06:30:56;;;;;;;30.50;17.17;;;;;;;;;;5073332;28;20031;-48
2022/03/14 06:33:22;;;;;;;39.70;19.02;;;;;;;;;;5073274;28;20051;-48
2022/03/14 06:35:48;;;;;;;28.83;15.68;;;;;;;;;;5073224;28;20020;-46
2022/03/14 06:38:13;;;;;;;30.27;15.77;;;;;;;;;;5073146;28;20108;-46
2022/03/14 06:40:41;;;;;;;30.20;14.50;;;;;;;;;;5073002;28;20024;-47
2022/03/14 06:43:08;;;;;;;33.00;16.77;;;;;;;;;;5073238;28;20115;-45
2022/03/14 06:45:33;;;;;;;29.35;13.93;;;;;;;;;;5072923;28;20099;-47
2022/03/14 06:48:00;;;;;;;26.75;14.20;;;;;;;;;;5073007;28;20107;-45
2022/03/14 06:50:25;;;;;;;29.25;17.15;;;;;;;;;;5073247;28;20032;-47
2022/03/14 06:52:51;;;;;;;27.40;15.32;;;;;;;;;;5071552;28;20086;-45
2022/03/14 06:55:17;;;;;;;37.20;15.82;;;;;;;;;;5073172;28;20028;-47
2022/03/14 06:57:43;;;;;;;22.85;13.27;;;;;;;;;;5071843;28;20414;-46
2022/03/14 07:00:09;;;;;;;21.52;11.90;;;;;;;;;;5072713;28;20024;-46
2022/03/14 07:02:39;;;;;;;14.68;9.40;;;;;;;;;;5072655;28;20036;-47
2022/03/14 07:05:05;;;;;;;27.67;14.07;;;;;;;;;;5072956;28;20097;-45
2022/03/14 07:07:30;;;;;;;19.35;10.88;;;;;;;;;;5072814;28;20090;-45
2022/03/14 07:09:56;;;;;;;17.80;10.88;;;;;;;;;;5072825;28;20032;-43
2022/03/14 07:12:21;;;;;;;18.95;10.48;;;;;;;;;;5072570;28;20066;-46
2022/03/14 07:14:47;;;;;;;21.45;11.88;;;;;;;;;;5072499;28;20035;-49
2022/03/14 07:17:12;;;;;;;19.95;10.05;;;;;;;;;;5072752;28;20171;-46
2022/03/14 07:19:45;;;;;;;25.88;12.05;;;;;;;;;;5071175;28;20032;-47
2022/03/14 07:22:11;;;;;;;16.58;9.95;;;;;;;;;;5072779;28;20031;-46
2022/03/14 07:24:37;;;;;;;23.25;11.80;;;;;;;;;;5071948;28;20111;-45
2022/03/14 07:27:02;;;;;;;19.00;11.27;;;;;;;;;;5072223;28;20179;-42
2022/03/14 07:29:29;;;;;;;19.88;11.90;;;;;;;;;;5072316;28;20025;-43
2022/03/14 07:31:54;;;;;;;14.98;9.57;;;;;;;;;;5071169;28;20032;-42
2022/03/14 07:34:20;;;;;;;16.45;8.82;;;;;;;;;;5072559;28;20100;-41
2022/03/14 07:36:45;;;;;;;20.95;11.63;;;;;;;;;;5072313;28;20111;-45
2022/03/14 07:39:11;;;;;;;24.95;10.70;;;;;;;;;;5072604;28;20074;-42
2022/03/14 07:41:36;;;;;;;21.08;9.85;;;;;;;;;;5072162;28;20021;-45
2022/03/14 07:44:03;;;;;;;24.30;10.93;;;;;;;;;;5072507;28;20107;-41
2022/03/14 07:46:29;;;;;;;15.55;10.55;;;;;;;;;;5072585;28;20115;-44
2022/03/14 07:48:55;;;;;;;21.38;11.23;;;;;;;;;;5072342;28;20111;-44
2022/03/14 07:51:21;;;;;;;20.27;11.02;;;;;;;;;;5070842;28;20115;-42
2022/03/14 07:53:46;;;;;;;25.63;11.07;;;;;;;;;;5072161;28;20064;-42
2022/03/14 07:56:14;;;;;;;17.23;10.98;;;;;;;;;;5072095;28;20094;-43
2022/03/14 07:58:41;;;;;;;22.60;10.57;;;;;;;;;;5072160;28;20027;-45
2022/03/14 08:01:06;;;;;;;17.65;9.75;;;;;;;;;;5072234;28;20051;-43
2022/03/14 08:03:32;;;;;;;14.75;9.95;;;;;;;;;;5072089;28;20052;-45
2022/03/14 08:06:00;;;;;;;11.75;8.43;;;;;;;;;;5072001;28;20451;-42
2022/03/14 08:08:26;;;;;;;18.92;10.93;;;;;;;;;;5070633;28;20032;-44
2022/03/14 08:10:54;;;;;;;15.35;8.48;;;;;;;;;;5072019;28;20495;-46
2022/03/14 08:13:20;;;;;;;15.52;8.98;;;;;;;;;;5071938;28;20036;-46
2022/03/14 08:15:47;;;;;;;14.93;8.82;;;;;;;;;;5072495;28;20071;-45
2022/03/14 08:18:13;;;;;;;20.67;9.40;;;;;;;;;;5072628;28;20035;-42
2022/03/14 08:20:39;;;;;;;19.67;9.90;;;;;;;;;;5072480;28;20020;-44
2022/03/14 08:23:05;;;;;;;27.63;9.63;;;;;;;;;;5072419;28;20031;-50
2022/03/14 08:25:32;;;;;;;14.75;8.25;;;;;;;;;;5072431;28;20050;-45
2022/03/14 08:27:59;;;;;;;13.07;9.68;;;;;;;;;;5071205;28;20084;-45
2022/03/14 08:30:25;;;;;;;15.20;8.18;;;;;;;;;;5070513;28;20060;-44
2022/03/14 08:32:53;;;;;;;12.95;7.60;;;;;;;;;;5070983;28;20029;-46
2022/03/14 08:35:20;;;;;;;13.52;8.50;;;;;;;;;;5072591;28;20403;-42
2022/03/14 08:37:48;;;;;;;14.02;8.20;;;;;;;;;;5075420;28;20120;-43
2022/03/14 08:40:16;;;;;;;12.00;8.15;;;;;;;;;;5075873;28;20024;-47
2022/03/14 08:42:45;;;;;;;12.43;8.30;;;;;;;;;;5075869;28;20082;-47
2022/03/14 08:45:12;;;;;;;11.35;7.80;;;;;;;;;;5074438;28;20029;-48
2022/03/14 08:47:38;;;;;;;8.90;5.72;;;;;;;;;;5072695;28;20025;-45
2022/03/14 08:50:05;;;;;;;13.82;8.18;;;;;;;;;;5074253;28;20032;-44
2022/03/14 08:52:31;;;;;;;13.38;7.82;;;;;;;;;;5074266;28;20021;-49
2022/03/14 08:54:57;;;;;;;14.57;8.07;;;;;;;;;;5073619;28;20048;-43
2022/03/14 08:57:23;;;;;;;14.40;8.55;;;;;;;;;;5073484;28;20032;-50
2022/03/14 08:59:49;;;;;;;12.32;8.95;;;;;;;;;;5073941;28;20032;-49
2022/03/14 09:02:15;;;;;;;12.23;8.02;;;;;;;;;;5073750;28;20028;-48
2022/03/14 09:04:40;;;;;;;14.90;8.82;;;;;;;;;;5074799;28;20516;-48
2022/03/14 09:07:06;;;;;;;12.65;7.05;;;;;;;;;;5074865;28;20024;-47
2022/03/14 09:09:32;;;;;;;7.68;5.68;;;;;;;;;;5057070;28;20032;-47
2022/03/14 09:11:58;;;;;;;10.63;6.72;;;;;;;;;;5075204;28;20032;-44
2022/03/14 09:14:24;;;;;;;14.75;7.93;;;;;;;;;;5074976;28;20461;-49
2022/03/14 09:16:51;;;;;;;9.05;6.47;;;;;;;;;;5074325;28;20368;-46
2022/03/14 09:19:17;;;;;;;16.23;9.30;;;;;;;;;;5074473;28;20033;-43
2022/03/14 09:21:42;;;;;;;10.43;6.35;;;;;;;;;;5074619;28;20475;-45
2022/03/14 09:24:08;;;;;;;7.53;5.65;;;;;;;;;;5074639;28;20494;-47
2022/03/14 09:26:35;;;;;;;11.48;8.05;;;;;;;;;;5074095;28;20049;-49
2022/03/14 09:29:02;;;;;;;11.45;7.55;;;;;;;;;;5073115;28;20060;-47
2022/03/14 09:31:28;;;;;;;11.88;7.25;;;;;;;;;;5074374;28;20036;-45
2022/03/14 09:33:53;;;;;;;12.85;7.03;;;;;;;;;;5074278;28;20081;-46
2022/03/14 09:36:19;;;;;;;14.93;8.50;;;;;;;;;;5074334;28;20024;-44
2022/03/14 09:38:45;;;;;;;11.95;7.72;;;;;;;;;;5074183;28;20036;-48
2022/03/14 09:41:15;;;;;;;13.65;8.35;;;;;;;;;;5074420;28;20096;-46
2022/03/14 09:43:40;;;;;;;14.93;9.10;;;;;;;;;;5087554;28;20107;-43
2022/03/14 09:46:10;;;;;;;13.13;7.13;;;;;;;;;;5093796;28;20540;-43
2022/03/14 09:48:40;;;;;;;17.00;9.63;;;;;;;;;;5092746;28;20070;-44
2022/03/14 09:51:06;;;;;;;16.57;9.10;;;;;;;;;;5091535;28;20028;-44
2022/03/14 09:53:34;;;;;;;12.73;8.63;;;;;;;;;;5093744;28;20028;-49
2022/03/14 09:56:00;;;;;;;11.00;7.20;;;;;;;;;;5093863;28;20027;-49
2022/03/14 09:58:26;;;;;;;10.45;7.43;;;;;;;;;;5093905;28;20410;-50
2022/03/14 10:00:53;;;;;;;10.93;7.85;;;;;;;;;;5093872;28;20020;-48
2022/03/14 10:03:22;;;;;;;16.30;6.85;;;;;;;;;;5093276;28;20032;-44
2022/03/14 10:05:47;;;;;;;13.10;6.78;;;;;;;;;;5091016;28;20016;-47
2022/03/14 10:08:14;;;;;;;10.75;7.38;;;;;;;;;;5074999;28;20081;-43
2022/03/14 10:10:40;;;;;;;14.85;8.60;;;;;;;;;;5093654;28;20020;-47
2022/03/14 10:13:07;;;;;;;9.45;7.00;;;;;;;;;;5092625;28;20432;-49
2022/03/14 10:15:37;;;;;;;9.63;5.80;;;;;;;;;;5092618;28;20048;-50
2022/03/14 10:18:17;;;;;;;10.38;5.97;;;;;;;;;;5093795;28;20484;-45
2022/03/14 10:21:06;;;;;;;7.63;5.40;;;;;;;;;;5093953;28;20468;-46
2022/03/14 10:23:41;;;;;;;13.27;7.03;;;;;;;;;;5093824;28;20468;-45
2022/03/14 10:26:10;;;;;;;13.50;7.28;;;;;;;;;;5091986;28;20052;-45
2022/03/14 10:28:38;;;;;;;11.63;7.75;;;;;;;;;;5091853;28;20040;-49
2022/03/14 10:31:05;;;;;;;12.50;7.15;;;;;;;;;;5091225;28;20020;-45
2022/03/14 10:33:35;;;;;;;8.98;6.22;;;;;;;;;;5092750;28;20020;-45
2022/03/14 10:36:01;;;;;;;10.73;5.70;;;;;;;;;;5093007;28;20384;-51
2022/03/14 10:38:27;;;;;;;10.38;7.00;;;;;;;;;;5093247;28;20029;-45
2022/03/14 10:40:56;;;;;;;8.02;4.63;;;;;;;;;;5093526;28;20493;-47
2022/03/14 10:43:25;;;;;;;8.57;5.80;;;;;;;;;;5093088;28;20024;-49
2022/03/14 10:45:52;;;;;;;8.73;5.85;;;;;;;;;;5092201;28;20568;-51
2022/03/14 10:48:35;;;;;;;11.35;6.53;;;;;;;;;;5092304;28;20476;-50
2022/03/14 10:51:08;;;;;;;10.38;6.75;;;;;;;;;;5093056;28;20465;-45
2022/03/14 10:53:38;;;;;;;13.68;7.68;;;;;;;;;;5092959;28;20507;-50
2022/03/14 10:56:04;;;;;;;14.52;7.82;;;;;;;;;;5093137;28;20024;-46
2022/03/14 10:58:33;;;;;;;12.27;7.38;;;;;;;;;;5093007;28;20097;-47
2022/03/14 11:01:07;;;;;;;11.98;7.97;;;;;;;;;;5092954;28;20074;-48
2022/03/14 11:03:39;;;;;;;14.80;7.78;;;;;;;;;;5092968;28;20415;-47
2022/03/14 11:06:17;;;;;;;11.95;7.43;;;;;;;;;;5092966;28;20028;-45
2022/03/14 11:08:51;;;;;;;13.55;8.20;;;;;;;;;;5092892;28;20032;-43
2022/03/14 11:11:20;;;;;;;14.13;8.27;;;;;;;;;;5092753;28;20123;-51
2022/03/14 11:13:50;;;;;;;16.83;8.63;;;;;;;;;;5091439;28;20073;-48
2022/03/14 11:16:24;;;;;;;10.85;7.40;;;;;;;;;;5092442;28;20028;-48
2022/03/14 11:18:51;;;;;;;10.90;7.53;;;;;;;;;;5092751;28;20119;-45
2022/03/14 11:21:19;;;;;;;12.88;7.85;;;;;;;;;;5092970;28;20028;-47
2022/03/14 11:23:46;;;;;;;12.60;7.38;;;;;;;;;;5092958;28;20110;-48
2022/03/14 11:26:13;;;;;;;11.93;6.70;;;;;;;;;;5092355;28;20500;-47
2022/03/14 11:28:41;;;;;;;13.68;7.38;;;;;;;;;;5092580;28;20043;-44
2022/03/14 11:31:08;;;;;;;10.25;6.80;;;;;;;;;;5090871;28;20032;-48
2022/03/14 11:33:38;;;;;;;13.20;8.18;;;;;;;;;;5091517;28;20020;-47
2022/03/14 11:36:05;;;;;;;13.15;8.30;;;;;;;;;;5092209;28;20069;-46
2022/03/14 11:38:31;;;;;;;11.77;7.10;;;;;;;;;;5092669;28;20032;-43
2022/03/14 11:40:58;;;;;;;10.82;5.97;;;;;;;;;;5092615;28;20035;-44
2022/03/14 11:43:24;;;;;;;12.00;7.82;;;;;;;;;;5090447;28;20464;-46
2022/03/14 11:45:51;;;;;;;10.98;6.53;;;;;;;;;;5092331;28;20035;-44
2022/03/14 11:48:18;;;;;;;10.85;7.00;;;;;;;;;;5092583;28;20055;-51
2022/03/14 11:50:56;;;;;;;10.52;6.65;;;;;;;;;;5093301;28;20024;-46
2022/03/14 11:53:30;;;;;;;11.70;8.15;;;;;;;;;;5093317;28;20455;-50
2022/03/14 11:56:01;;;;;;;9.45;7.15;;;;;;;;;;5093304;28;20032;-48
2022/03/14 11:58:28;;;;;;;7.25;5.75;;;;;;;;;;5093226;28;20035;-46
2022/03/14 12:00:54;;;;;;;9.23;6.20;;;;;;;;;;5092591;28;20020;-46
2022/03/14 12:03:42;;;;;;;10.43;7.35;;;;;;;;;;5092686;28;20107;-47
2022/03/14 12:06:08;;;;;;;14.23;7.65;;;;;;;;;;5092604;28;20103;-46
2022/03/14 12:08:36;;;;;;;11.55;6.57;;;;;;;;;;5092541;28;20543;-47
2022/03/14 12:11:34;;;;;;;8.38;5.57;;;;;;;;;;5093497;28;20115;-47
2022/03/14 12:14:03;;;;;;;7.22;5.35;;;;;;;;;;5081059;28;20067;-47
2022/03/14 12:16:35;;;;;;;12.43;6.60;;;;;;;;;;5096694;28;20422;-51
2022/03/14 12:19:30;;;;;;;11.73;5.90;;;;;;;;;;5096579;28;20028;-45
2022/03/14 12:21:57;;;;;;;14.60;7.25;;;;;;;;;;5095959;28;20031;-46
2022/03/14 12:24:37;;;;;;;14.00;6.47;;;;;;;;;;5096369;28;20020;-48
2022/03/14 12:27:23;;;;;;;13.45;6.28;;;;;;;;;;5095705;28;20519;-45
2022/03/14 12:29:53;;;;;;;11.00;6.65;;;;;;;;;;5081641;28;20032;-47
2022/03/14 12:32:25;;;;;;;8.25;5.45;;;;;;;;;;5094843;28;20073;-47
2022/03/14 12:35:08;;;;;;;5.70;3.97;;;;;;;;;;5096077;28;20392;-46
2022/03/14 12:37:57;;;;;;;8.18;4.88;;;;;;;;;;5095823;28;20024;-46
2022/03/14 12:40:23;;;;;;;10.07;6.10;;;;;;;;;;5094371;28;20028;-47
2022/03/14 12:43:07;;;;;;;12.20;6.07;;;;;;;;;;5094634;28;20059;-44
2022/03/14 12:45:50;;;;;;;12.50;4.97;;;;;;;;;;5095233;28;20065;-47
2022/03/14 12:48:17;;;;;;;12.80;6.88;;;;;;;;;;5095567;28;20441;-46
2022/03/14 12:50:43;;;;;;;13.55;6.13;;;;;;;;;;5095208;28;20119;-45
2022/03/14 12:53:17;;;;;;;9.23;5.97;;;;;;;;;;5095242;28;20059;-45
2022/03/14 12:55:50;;;;;;;7.50;5.35;;;;;;;;;;5095639;28;20484;-46
2022/03/14 12:58:21;;;;;;;7.88;5.47;;;;;;;;;;5095667;28;20077;-46
2022/03/14 13:00:47;;;;;;;13.88;7.43;;;;;;;;;;5095372;28;20016;-45
2022/03/14 13:03:25;;;;;;;7.43;5.13;;;;;;;;;;5095341;28;20116;-44
2022/03/14 13:05:50;;;;;;;12.00;5.60;;;;;;;;;;5095226;28;20036;-46
2022/03/14 13:08:17;;;;;;;10.55;6.10;;;;;;;;;;5093839;28;20085;-45
2022/03/14 13:10:45;;;;;;;8.32;5.63;;;;;;;;;;5095468;28;20027;-43
2022/03/14 13:13:12;;;;;;;6.88;4.30;;;;;;;;;;5095398;28;20368;-45
2022/03/14 13:15:42;;;;;;;8.75;4.68;;;;;;;;;;5095021;28;20619;-48
2022/03/14 13:18:19;;;;;;;7.70;5.10;;;;;;;;;;5095038;28;20024;-47
2022/03/14 13:20:46;;;;;;;8.30;4.13;;;;;;;;;;5094943;28;20180;-45
2022/03/14 13:23:21;;;;;;;7.45;4.60;;;;;;;;;;5093941;28;20021;-46
2022/03/14 13:25:51;;;;;;;8.15;4.63;;;;;;;;;;5094697;28;20466;-47
2022/03/14 13:28:30;;;;;;;8.55;5.88;;;;;;;;;;5093554;28;20028;-48
2022/03/14 13:30:59;;;;;;;10.93;5.22;;;;;;;;;;5094820;28;20107;-45
2022/03/14 13:33:27;;;;;;;10.07;5.40;;;;;;;;;;5094829;28;20030;-47
2022/03/14 13:36:01;;;;;;;10.20;4.97;;;;;;;;;;5094673;28;20512;-48
2022/03/14 13:38:39;;;;;;;8.38;5.35;;;;;;;;;;5094858;28;20067;-47
2022/03/14 13:41:10;;;;;;;7.97;5.18;;;;;;;;;;5094469;28;20032;-48
2022/03/14 13:43:37;;;;;;;11.75;4.22;;;;;;;;;;5094491;28;20031;-44
2022/03/14 13:46:25;;;;;;;9.75;5.30;;;;;;;;;;5094750;28;20024;-46
2022/03/14 13:48:51;;;;;;;8.40;4.25;;;;;;;;;;5094338;28;20081;-46
2022/03/14 13:51:20;;;;;;;6.60;4.95;;;;;;;;;;5094345;28;20031;-47
2022/03/14 13:53:47;;;;;;;7.80;5.22;;;;;;;;;;5094607;28;20024;-48
2022/03/14 13:56:13;;;;;;;6.72;4.72;;;;;;;;;;5094256;28;20024;-47
2022/03/14 13:58:39;;;;;;;6.68;4.63;;;;;;;;;;5094262;28;20396;-47
2022/03/14 14:01:05;;;;;;;6.40;4.15;;;;;;;;;;5094202;28;20024;-46
2022/03/14 14:03:32;;;;;;;9.60;5.45;;;;;;;;;;5094077;28;20027;-47
2022/03/14 14:06:17;;;;;;;7.32;4.97;;;;;;;;;;5094386;28;20380;-48
2022/03/14 14:08:43;;;;;;;8.73;4.50;;;;;;;;;;5094191;28;20028;-46
2022/03/14 14:11:30;;;;;;;9.85;4.97;;;;;;;;;;5094299;28;20349;-47
2022/03/14 14:13:56;;;;;;;8.30;4.82;;;;;;;;;;5093960;28;20024;-46
2022/03/14 14:16:25;;;;;;;8.45;5.10;;;;;;;;;;5094178;28;20024;-43
2022/03/14 14:19:09;;;;;;;7.85;5.20;;;;;;;;;;5094150;28;20107;-47
2022/03/14 14:21:35;;;;;;;12.57;5.22;;;;;;;;;;5094077;28;20035;-47
2022/03/14 14:24:04;;;;;;;6.10;3.88;;;;;;;;;;5093756;28;20032;-47
2022/03/14 14:26:31;;;;;;;7.53;4.22;;;;;;;;;;5093483;28;20559;-46
2022/03/14 14:28:56;;;;;;;7.30;3.97;;;;;;;;;;5093836;28;20028;-46
2022/03/14 14:31:22;;;;;;;6.07;4.88;;;;;;;;;;5093902;28;20401;-47